Latest Weather Observations for Dunalley

IDT60901

Issued at 11:31 am EDT Tuesday 3 March 2015 (issued every 10 minutes, with the page automatically refreshed every 10 minutes)

About weather observations | Map of Hobart area stations | Latest observations for Hobart area | Other Formats
Station Details ID: 094254 Name: DUNALLEY (STROUD POINT) Lat: -42.90 Lon: 147.79 Height: 12.43 m
Data from the previous 72 hours. | See also: Recent months at Dunalley
Date/Time
EDT
Tmp

°C
App
Tmp
°C
Dew
Point
°C
Rel
Hum
%
Delta-T

°C
Wind Press
QNH
hPa
Press
MSL
hPa
Rain
since
9 am
mm
Dir
 
Spd
km/h
Gust
km/h
Spd
kts
Gust
kts
03/11:30am 17.5 13.3 7.5 52 5.0 SW 19 24 10 13 1014.7 1014.7 0.0
03/11:00am 17.5 13.9 8.4 55 4.7 SW 17 22 9 12 1014.6 1014.6 0.0
03/10:30am 16.2 12.1 7.7 57 4.3 SW 19 24 10 13 1014.6 1014.6 0.0
03/10:00am 15.1 13.9 9.7 70 2.8 S 6 7 3 4 1014.6 1014.6 0.0
03/09:30am 14.7 13.3 9.5 71 2.7 S 7 9 4 5 1014.4 1014.4 0.0
03/09:00am 14.4 12.6 9.6 73 2.5 S 9 13 5 7 1014.3 1014.3 -
03/08:30am 14.2 12.5 9.8 75 2.3 S 9 13 5 7 1014.1 1014.1 -
03/08:00am 13.7 12.1 10.3 80 1.8 S 9 13 5 7 1014.1 1014.1 -
03/07:30am 13.2 11.0 10.7 85 1.3 S 13 19 7 10 1013.6 1013.6 -
03/07:00am 13.2 11.1 11.1 87 1.1 S 13 17 7 9 1013.2 1013.2 -
03/06:30am 13.0 12.1 11.2 89 0.9 S 7 11 4 6 1012.6 1012.6 -
03/06:00am 13.8 10.6 11.1 84 1.4 SW 19 22 10 12 1012.2 1012.2 -
03/05:30am 14.2 11.2 7.9 66 3.1 W 13 17 7 9 1011.7 1011.7 -
03/05:00am 14.0 10.7 6.6 61 3.6 WNW 13 22 7 12 1011.4 1011.4 -
03/04:30am 14.1 11.1 6.2 59 3.8 NW 11 20 6 11 1011.3 1011.3 -
03/04:00am 14.1 11.1 6.0 58 3.9 NW 11 20 6 11 1011.1 1011.1 -
03/03:30am 13.5 9.7 5.7 59 3.7 NNW 15 20 8 11 1011.1 1011.1 -
03/03:00am 12.6 9.5 5.5 62 3.3 NNW 11 17 6 9 1011.2 1011.2 -
03/02:30am 12.5 9.8 5.4 62 3.3 NNW 9 15 5 8 1011.4 1011.4 -
03/02:00am 12.3 9.5 5.2 62 3.3 NW 9 15 5 8 1011.5 1011.5 -
03/01:30am 12.4 9.6 5.1 61 3.4 NW 9 13 5 7 1011.9 1011.9 -
03/01:00am 12.8 9.2 5.2 60 3.5 NW 13 17 7 9 1012.3 1012.3 -
03/12:30am 13.9 10.6 6.3 60 3.6 WNW 13 22 7 12 1012.8 1012.8 0.0
03/12:00am 13.6 9.8 7.4 66 3.0 SW 17 24 9 13 1012.4 1012.4 0.0
 
Date/Time
EDT
Tmp

°C
App
Tmp
°C
Dew
Point
°C
Rel
Hum
%
Delta-T

°C
Wind Press
QNH
hPa
Press
MSL
hPa
Rain
since
9 am
mm
Dir
 
Spd
km/h
Gust
km/h
Spd
kts
Gust
kts
02/11:30pm 13.1 11.8 10.1 82 1.5 S 7 15 4 8 1012.7 1012.7 0.0
02/11:00pm 14.5 13.1 10.9 79 1.9 S 9 13 5 7 1012.6 1012.6 0.0
02/10:30pm 14.8 12.3 11.0 78 2.0 S 15 20 8 11 1012.4 1012.4 0.0
02/10:00pm 14.7 13.1 11.5 81 1.7 SSW 11 19 6 10 1012.4 1012.4 0.0
02/09:30pm 15.0 11.8 12.0 82 1.6 SSW 20 26 11 14 1011.8 1011.8 0.0
02/09:00pm 15.6 13.7 12.9 84 1.5 W 15 19 8 10 1011.3 1011.3 0.0
02/08:30pm 15.2 14.1 12.0 81 1.7 NNW 9 9 5 5 1010.7 1010.7 0.0
02/08:00pm 16.3 15.3 12.3 77 2.2 NNW 9 11 5 6 1010.3 1010.3 0.0
02/07:30pm 18.7 15.5 5.2 41 6.5 NNW 11 17 6 9 1010.2 1010.2 0.0
02/07:00pm 18.9 15.5 5.7 42 6.5 N 13 24 7 13 1009.9 1009.9 0.0
02/06:30pm 19.3 15.3 5.0 39 6.9 N 15 24 8 13 1009.5 1009.5 0.0
02/06:00pm 18.4 15.8 11.9 66 3.6 NNE 17 26 9 14 1010.0 1010.0 0.0
02/05:30pm 18.2 14.6 14.3 78 2.2 NE 26 33 14 18 1010.2 1010.2 0.0
02/05:00pm 18.1 14.4 13.8 76 2.5 NNE 26 32 14 17 1010.7 1010.7 0.0
02/04:30pm 18.2 13.3 13.7 75 2.6 NE 32 39 17 21 1011.0 1011.0 0.0
02/04:00pm 18.2 12.1 13.1 72 2.9 NE 37 46 20 25 1011.3 1011.3 0.0
02/03:30pm 18.2 12.3 12.4 69 3.2 NE 35 44 19 24 1011.8 1011.8 0.0
02/03:00pm 18.3 12.6 13.0 71 3.0 NE 35 43 19 23 1012.5 1012.5 0.0
02/02:30pm 17.8 10.9 11.6 67 3.4 NE 39 46 21 25 1013.1 1013.1 0.0
02/02:00pm 17.5 9.7 11.1 66 3.5 NE 43 52 23 28 1013.4 1013.4 0.0
02/01:30pm 17.4 9.9 10.8 65 3.5 NE 41 50 22 27 1014.1 1014.1 0.0
02/01:00pm 17.3 10.5 10.7 65 3.5 NE 37 46 20 25 1014.8 1014.8 0.0
02/12:30pm 16.5 10.3 9.4 63 3.7 NE 32 41 17 22 1015.9 1015.9 0.0
02/12:00pm 15.8 9.8 8.8 63 3.6 NE 30 35 16 19 1016.9 1016.9 0.0
02/11:30am 15.5 10.6 8.3 62 3.6 NE 24 32 13 17 1017.6 1017.6 0.0
02/11:00am 15.5 11.3 7.5 59 4.0 ENE 19 26 10 14 1018.1 1018.1 0.0
02/10:30am 15.0 10.7 6.8 58 4.0 ENE 19 22 10 12 1018.2 1018.2 0.0
02/10:00am 13.9 11.2 5.8 58 3.8 NW 9 15 5 8 1018.4 1018.4 0.0
02/09:30am 13.4 11.2 5.1 57 3.9 NW 6 9 3 5 1018.6 1018.6 0.0
02/09:00am 12.7 10.5 5.1 60 3.5 NW 6 7 3 4 1018.7 1018.7 0.0
02/08:30am 11.6 8.8 5.0 64 3.0 NW 9 15 5 8 1019.0 1019.0 0.0
02/08:00am 11.1 8.6 4.8 65 2.8 NW 7 13 4 7 1018.7 1018.7 0.0
02/07:30am 10.8 7.9 4.9 67 2.7 NW 9 13 5 7 1018.5 1018.5 0.0
02/07:00am 10.5 7.7 5.1 69 2.4 WNW 9 11 5 6 1018.3 1018.3 0.0
02/06:30am 9.9 6.7 5.1 72 2.2 WNW 11 13 6 7 1018.4 1018.4 0.0
02/06:00am 9.9 7.1 5.3 73 2.1 WNW 9 13 5 7 1018.1 1018.1 0.0
02/05:30am 9.6 6.7 4.4 70 2.3 WNW 9 11 5 6 1018.3 1018.3 0.0
02/05:00am 11.4 7.0 4.8 64 3.0 SW 17 22 9 12 1018.0 1018.0 0.0
02/04:30am 11.6 7.0 5.5 66 2.8 SW 19 24 10 13 1017.9 1017.9 0.0
02/04:00am 11.6 6.7 5.3 65 2.9 SW 20 26 11 14 1018.0 1018.0 0.0
02/03:30am 11.9 7.1 5.8 66 2.8 SW 20 26 11 14 1017.9 1017.9 0.0
02/03:00am 11.9 7.3 5.5 65 3.0 SW 19 22 10 12 1017.7 1017.7 0.0
02/02:30am 12.1 6.9 5.5 64 3.1 SW 22 26 12 14 1017.3 1017.3 0.0
02/02:00am 12.3 7.1 5.5 63 3.2 SW 22 28 12 15 1017.5 1017.5 0.0
02/01:30am 12.8 8.1 6.2 64 3.1 SW 20 26 11 14 1017.6 1017.6 0.0
02/01:00am 12.9 8.3 6.3 64 3.1 SW 20 26 11 14 1017.5 1017.5 0.0
02/12:30am 12.9 8.3 6.3 64 3.1 SW 20 24 11 13 1017.3 1017.3 0.0
02/12:00am 12.8 7.5 6.6 66 3.0 SSW 24 30 13 16 1016.9 1016.9 0.0
 
Date/Time
EDT
Tmp

°C
App
Tmp
°C
Dew
Point
°C
Rel
Hum
%
Delta-T

°C
Wind Press
QNH
hPa
Press
MSL
hPa
Rain
since
9 am
mm
Dir
 
Spd
km/h
Gust
km/h
Spd
kts
Gust
kts
01/11:30pm 12.8 6.7 6.8 67 2.9 SSW 28 33 15 18 1016.8 1016.8 0.0
01/11:00pm 12.9 7.2 6.9 67 2.9 SSW 26 32 14 17 1017.1 1017.1 0.0
01/10:30pm 13.2 7.0 7.9 70 2.6 SSW 30 35 16 19 1017.0 1017.0 0.0
01/10:00pm 13.2 6.4 7.6 69 2.7 SSW 33 39 18 21 1016.8 1016.8 0.0
01/09:30pm 13.6 7.3 8.9 73 2.4 SSW 32 39 17 21 1016.6 1016.6 0.0
01/09:00pm 13.7 8.2 9.2 74 2.3 SSW 28 35 15 19 1016.2 1016.2 0.0
01/08:30pm 13.8 7.6 9.5 75 2.2 SSW 32 39 17 21 1015.3 1015.3 0.0
01/08:00pm 14.0 7.3 9.6 75 2.3 SSW 35 43 19 23 1014.6 1014.6 0.0
01/07:30pm 14.6 7.6 10.0 74 2.4 SSW 37 46 20 25 1013.9 1013.9 0.0
01/07:00pm 15.1 7.8 10.1 72 2.6 SSW 39 48 21 26 1013.6 1013.6 0.0
01/06:30pm 14.8 6.8 10.4 75 2.3 SSW 43 54 23 29 1012.8 1012.8 0.0
01/06:00pm 15.7 8.7 9.8 68 3.1 SSW 37 46 20 25 1012.5 1012.5 0.0
01/05:30pm 16.2 9.6 10.1 67 3.2 SSW 35 43 19 23 1012.2 1012.2 0.0
01/05:00pm 16.1 9.7 9.3 64 3.5 SSW 33 43 18 23 1012.1 1012.1 0.0
01/04:30pm 15.6 8.2 9.7 68 3.1 SSW 39 48 21 26 1011.6 1011.6 0.0
01/04:00pm 16.2 9.4 10.7 70 2.9 SSW 37 44 20 24 1011.2 1011.2 0.0
01/03:30pm 16.7 9.9 10.5 67 3.3 SW 37 44 20 24 1010.8 1010.8 0.0
01/03:00pm 17.8 10.9 10.2 61 4.0 SW 37 46 20 25 1010.4 1010.4 0.0
01/02:30pm 16.8 10.2 10.0 64 3.6 SW 35 48 19 26 1009.9 1009.9 0.0
01/02:00pm 17.4 10.2 10.5 64 3.7 SW 39 44 21 24 1009.4 1009.4 0.0
01/01:30pm 16.8 9.5 10.2 65 3.5 SSW 39 48 21 26 1009.2 1009.2 0.0
01/01:00pm 16.4 9.1 8.9 61 3.9 SW 37 50 20 27 1008.7 1008.7 0.0
01/12:30pm 17.7 9.6 8.6 55 4.7 SW 41 54 22 29 1008.5 1008.5 0.0
01/12:00pm 17.0 9.9 9.4 61 4.0 SW 37 46 20 25 1008.1 1008.1 0.0
01/11:30am 16.4 8.8 8.9 61 3.9 SW 39 50 21 27 1007.8 1007.8 0.0
01/11:00am 15.7 8.3 10.0 69 3.0 WSW 39 48 21 26 1007.5 1007.5 0.0
01/10:30am 16.2 8.3 9.4 64 3.5 WSW 41 46 22 25 1006.7 1006.7 0.0
01/10:00am 15.6 8.6 9.9 69 3.0 SW 37 44 20 24 1006.1 1006.1 0.0
01/09:30am 15.6 8.4 10.6 72 2.6 SW 39 50 21 27 1005.6 1005.6 0.0
01/09:00am 15.3 8.3 11.1 76 2.2 WSW 39 48 21 26 1004.9 1004.9 2.2
01/08:57am 15.1 8.3 10.7 75 2.3 WSW 37 48 20 26 1004.8 1004.8 2.2
01/08:30am 14.9 8.1 10.7 76 2.2 W 37 44 20 24 1004.1 1004.1 2.2
01/08:00am 15.1 7.6 10.9 76 2.2 W 41 46 22 25 1003.5 1003.5 2.2
01/07:30am 15.5 8.0 10.7 73 2.5 W 41 46 22 25 1002.9 1002.9 2.2
01/07:00am 15.6 8.0 10.6 72 2.7 WSW 41 48 22 26 1002.0 1002.0 2.2
01/06:30am 15.9 8.5 10.0 68 3.1 WSW 39 52 21 28 1001.2 1001.2 2.2
01/06:27am 16.0 9.8 10.1 68 3.1 W 33 52 18 28 1001.1 1001.1 2.2
01/06:00am 15.0 10.4 8.3 64 3.4 WNW 22 32 12 17 1001.0 1001.0 2.2
01/05:30am 15.3 10.0 8.3 63 3.5 W 26 37 14 20 1000.4 1000.4 2.2
01/05:00am 15.8 9.7 8.1 60 3.9 W 30 43 16 23 1000.2 1000.2 2.2
01/04:30am 15.8 10.9 8.3 61 3.8 W 24 33 13 18 1000.1 1000.1 2.2
01/04:00am 15.8 11.4 8.8 63 3.6 WNW 22 32 12 17 1000.2 1000.2 2.2
01/03:30am 15.9 12.1 9.1 64 3.5 WNW 19 24 10 13 1000.1 1000.1 2.2
01/03:00am 16.3 12.7 9.7 65 3.5 WNW 19 30 10 16 1000.0 1000.0 2.2
01/02:30am 16.9 13.0 9.3 61 4.0 WNW 20 30 11 16 999.5 999.5 2.2
01/02:00am 17.3 12.6 9.2 59 4.2 WNW 24 32 13 17 999.2 999.2 2.2
01/01:30am 17.6 14.0 10.5 63 3.8 WNW 20 26 11 14 999.2 999.2 2.2
01/01:00am 18.6 16.5 11.2 62 4.1 NW 13 20 7 11 999.3 999.3 2.2
01/12:30am 19.4 17.4 12.7 65 3.8 NW 15 24 8 13 998.8 998.8 2.2
01/12:00am 19.9 15.8 12.7 63 4.1 WNW 26 33 14 18 998.2 998.2 2.2
 
Date/Time
EDT
Tmp

°C
App
Tmp
°C
Dew
Point
°C
Rel
Hum
%
Delta-T

°C
Wind Press
QNH
hPa
Press
MSL
hPa
Rain
since
9 am
mm
Dir
 
Spd
km/h
Gust
km/h
Spd
kts
Gust
kts
28/11:30pm 20.1 15.7 12.8 63 4.1 WNW 28 39 15 21 997.5 997.5 2.2
28/11:00pm 19.9 17.8 13.6 67 3.6 NW 17 26 9 14 997.8 997.8 2.2
28/10:30pm 19.8 18.3 14.2 70 3.2 NNW 15 24 8 13 998.5 998.5 2.2
28/10:00pm 18.7 17.7 14.6 77 2.4 N 13 19 7 10 997.8 997.8 2.2
28/09:30pm 18.9 18.1 15.0 78 2.3 N 13 17 7 9 997.3 997.3 2.2
28/09:00pm 19.3 18.8 15.0 76 2.5 N 11 15 6 8 997.3 997.3 2.2
28/08:30pm 19.6 17.0 15.0 75 2.7 N 22 33 12 18 996.8 996.8 2.2
28/08:00pm 19.8 17.7 14.8 73 2.9 N 19 22 10 12 996.6 996.6 2.2
28/07:30pm 20.4 18.1 14.7 70 3.3 N 20 28 11 15 995.8 995.8 2.2
28/07:00pm 21.4 19.0 14.3 64 4.2 N 20 28 11 15 996.4 996.4 2.2
28/06:30pm 22.1 19.8 14.2 61 4.6 N 19 32 10 17 996.8 996.8 2.2
28/06:00pm 22.2 18.8 13.8 59 4.9 N 24 37 13 20 996.4 996.4 2.2
28/05:30pm 22.7 20.0 14.5 60 4.8 N 22 37 12 20 996.9 996.9 2.2
28/05:00pm 21.0 18.4 13.7 63 4.2 N 20 35 11 19 997.5 997.5 2.2
28/04:30pm 20.8 18.6 13.3 62 4.3 N 17 32 9 17 997.8 997.8 2.2
28/04:00pm 20.5 18.0 14.2 67 3.7 NNE 20 26 11 14 998.4 998.4 2.2
28/03:30pm 18.5 16.2 14.6 78 2.3 ENE 20 26 11 14 999.2 999.2 2.2
28/03:00pm 17.6 15.2 12.5 72 2.8 NE 17 20 9 11 999.9 999.9 2.2
28/02:30pm 16.8 13.8 12.1 74 2.6 NNE 19 24 10 13 1000.7 1000.7 2.2
28/02:00pm 15.8 12.8 11.8 77 2.2 NNE 19 26 10 14 1001.1 1001.1 2.2
28/01:30pm 15.3 14.1 12.8 85 1.4 NNE 11 19 6 10 1001.7 1001.7 2.2
28/01:00pm 15.2 13.3 12.9 86 1.3 NNE 15 20 8 11 1002.2 1002.2 2.0
28/12:30pm 16.4 14.7 12.4 77 2.2 N 13 22 7 12 1002.7 1002.7 0.4
28/12:00pm 16.1 12.6 13.4 84 1.5 NE 24 28 13 15 1002.7 1002.7 0.0

Latest Capital City Observations: Canberra | Sydney | Melbourne | Brisbane | Adelaide | Perth | Hobart | Darwin

Other Formats:

Comma delimited format used in spreadsheet applications
http://www.bom.gov.au/fwo/IDT60901/IDT60901.94951.axf

JavaScript Object Notation format (JSON) in row-major order
http://www.bom.gov.au/fwo/IDT60901/IDT60901.94951.json